Time;durP1;ratioP1;P1;durP2;ratioP2;P2;SDS_P1;SDS_P2;PMS_P1;PMS_P2;Temp;Humidity;BMP_temperature;BMP_pressure;BME280_temperature;BME280_humidity;BME280_pressure;Samples;Min_cycle;Max_cycle;Signal;HPM_P1;HPM_P2
2022/05/18 00:00:29;;;;;;;6.15;4.60;;;;;;;;;;5087411;28;20074;-67
2022/05/18 00:02:56;;;;;;;9.90;5.50;;;;;;;;;;5086586;28;20040;-67
2022/05/18 00:05:23;;;;;;;8.07;4.57;;;;;;;;;;5096329;28;20028;-67
2022/05/18 00:07:49;;;;;;;7.97;4.15;;;;;;;;;;5089250;27;20490;-67
2022/05/18 00:10:15;;;;;;;6.95;4.63;;;;;;;;;;5096736;27;20665;-67
2022/05/18 00:12:45;;;;;;;6.13;4.32;;;;;;;;;;5087980;28;20125;-67
2022/05/18 00:15:12;;;;;;;10.02;4.38;;;;;;;;;;5096550;27;20040;-67
2022/05/18 00:17:38;;;;;;;5.85;4.35;;;;;;;;;;5088810;28;20039;-67
2022/05/18 00:20:04;;;;;;;6.43;4.80;;;;;;;;;;5089688;27;20044;-67
2022/05/18 00:22:30;;;;;;;6.47;4.88;;;;;;;;;;5084717;28;20271;-67
2022/05/18 00:24:56;;;;;;;11.07;4.68;;;;;;;;;;5096714;28;20540;-67
2022/05/18 00:27:23;;;;;;;6.78;4.30;;;;;;;;;;5086362;27;20040;-67
2022/05/18 00:29:49;;;;;;;8.57;4.57;;;;;;;;;;5086617;27;20497;-67
2022/05/18 00:32:15;;;;;;;10.43;5.03;;;;;;;;;;5087305;28;20093;-67
2022/05/18 00:34:41;;;;;;;6.45;4.75;;;;;;;;;;5087024;27;20044;-67
2022/05/18 00:37:07;;;;;;;10.30;4.97;;;;;;;;;;5087426;27;20616;-67
2022/05/18 00:39:33;;;;;;;6.50;4.60;;;;;;;;;;5100129;28;20567;-67
2022/05/18 00:42:00;;;;;;;8.60;5.10;;;;;;;;;;5085150;28;20036;-67
2022/05/18 00:44:26;;;;;;;9.10;5.28;;;;;;;;;;5084993;28;20056;-67
2022/05/18 00:46:52;;;;;;;8.13;4.88;;;;;;;;;;5084655;28;20044;-67
2022/05/18 00:49:18;;;;;;;7.90;5.40;;;;;;;;;;5084548;27;20039;-67
2022/05/18 00:51:47;;;;;;;8.13;4.93;;;;;;;;;;5085336;27;20484;-67
2022/05/18 00:54:24;;;;;;;7.20;5.10;;;;;;;;;;5094062;28;20060;-67
2022/05/18 00:57:02;;;;;;;7.80;5.47;;;;;;;;;;5089943;27;20080;-67
2022/05/18 00:59:31;;;;;;;10.57;4.90;;;;;;;;;;5087815;28;20127;-67
2022/05/18 01:01:59;;;;;;;10.60;5.57;;;;;;;;;;5085675;28;20043;-67
2022/05/18 01:04:26;;;;;;;7.82;4.88;;;;;;;;;;5085740;28;20043;-67
2022/05/18 01:06:52;;;;;;;7.45;5.60;;;;;;;;;;5091482;27;20127;-67
2022/05/18 01:09:19;;;;;;;8.18;5.63;;;;;;;;;;5086021;27;20051;-67
2022/05/18 01:11:46;;;;;;;9.75;5.75;;;;;;;;;;5082760;28;20040;-67
2022/05/18 01:14:17;;;;;;;10.02;5.28;;;;;;;;;;5094844;27;20474;-66
2022/05/18 01:16:43;;;;;;;9.10;5.33;;;;;;;;;;5089953;28;20046;-67
2022/05/18 01:19:25;;;;;;;6.22;5.60;;;;;;;;;;5068562;28;20982;-67
2022/05/18 01:21:56;;;;;;;8.65;6.50;;;;;;;;;;5091815;27;20051;-67
2022/05/18 01:24:31;;;;;;;10.27;5.28;;;;;;;;;;5095643;28;20051;-67
2022/05/18 01:27:00;;;;;;;9.85;5.43;;;;;;;;;;5086906;28;20727;-67
2022/05/18 01:29:27;;;;;;;8.43;5.40;;;;;;;;;;5085020;28;20531;-67
2022/05/18 01:31:58;;;;;;;8.93;5.25;;;;;;;;;;5085287;28;20040;-67
2022/05/18 01:34:26;;;;;;;11.10;6.40;;;;;;;;;;5085770;28;20055;-67
2022/05/18 01:36:52;;;;;;;8.88;5.60;;;;;;;;;;5084719;28;20040;-67
2022/05/18 01:39:20;;;;;;;8.52;6.07;;;;;;;;;;5090554;28;20043;-67
2022/05/18 01:41:52;;;;;;;7.03;4.88;;;;;;;;;;5088928;28;20082;-66
2022/05/18 01:44:18;;;;;;;8.75;6.15;;;;;;;;;;5094017;28;20058;-67
2022/05/18 01:46:46;;;;;;;7.72;5.18;;;;;;;;;;5085836;28;20449;-67
2022/05/18 01:49:12;;;;;;;7.38;4.90;;;;;;;;;;5089352;28;20044;-67
2022/05/18 01:51:40;;;;;;;7.05;5.75;;;;;;;;;;5089781;27;20507;-67
2022/05/18 01:54:06;;;;;;;8.60;5.53;;;;;;;;;;5093037;27;20067;-67
2022/05/18 01:56:33;;;;;;;9.52;6.10;;;;;;;;;;5093225;27;20046;-67
2022/05/18 01:58:59;;;;;;;8.27;5.90;;;;;;;;;;5091488;27;20047;-67
2022/05/18 02:01:26;;;;;;;10.32;5.10;;;;;;;;;;5096741;27;20513;-67
2022/05/18 02:03:53;;;;;;;8.30;5.60;;;;;;;;;;5092958;27;20535;-67
2022/05/18 02:06:19;;;;;;;10.75;5.90;;;;;;;;;;5101196;27;20044;-67
2022/05/18 02:08:46;;;;;;;8.70;6.32;;;;;;;;;;5090620;27;20549;-67
2022/05/18 02:11:16;;;;;;;10.15;5.13;;;;;;;;;;5100038;27;20043;-67
2022/05/18 02:13:42;;;;;;;9.48;5.95;;;;;;;;;;5097141;27;20078;-67
2022/05/18 02:16:09;;;;;;;8.00;5.30;;;;;;;;;;5099213;27;20504;-67
2022/05/18 02:18:35;;;;;;;13.70;6.63;;;;;;;;;;5104367;27;20055;-67
2022/05/18 02:21:05;;;;;;;9.95;5.65;;;;;;;;;;5097336;27;20039;-67
2022/05/18 02:23:32;;;;;;;7.32;6.10;;;;;;;;;;5096706;27;20047;-66
2022/05/18 02:26:01;;;;;;;11.27;6.22;;;;;;;;;;5095369;27;20082;-67
2022/05/18 02:28:27;;;;;;;9.43;6.07;;;;;;;;;;5091642;27;20372;-67
2022/05/18 02:30:53;;;;;;;10.40;5.93;;;;;;;;;;5094440;27;20081;-67
2022/05/18 02:33:20;;;;;;;9.38;5.97;;;;;;;;;;5097497;27;20044;-67
2022/05/18 02:35:46;;;;;;;8.52;6.18;;;;;;;;;;5093221;27;20043;-67
2022/05/18 02:38:12;;;;;;;10.15;5.68;;;;;;;;;;5090768;27;20406;-66
2022/05/18 02:40:38;;;;;;;10.95;6.47;;;;;;;;;;5092300;27;20101;-67
2022/05/18 02:43:04;;;;;;;7.47;5.85;;;;;;;;;;5091772;27;20044;-67
2022/05/18 02:45:30;;;;;;;15.65;6.63;;;;;;;;;;5099233;27;20089;-67
2022/05/18 02:47:56;;;;;;;9.82;6.43;;;;;;;;;;5091043;27;20174;-67
2022/05/18 02:50:23;;;;;;;14.52;7.38;;;;;;;;;;5102179;27;20171;-67
2022/05/18 02:52:49;;;;;;;12.80;6.88;;;;;;;;;;5089130;27;20052;-67
2022/05/18 02:57:59;;;;;;;9.43;6.85;;;;;;;;;;5093790;27;20043;-67
2022/05/18 03:00:41;;;;;;;10.32;7.85;;;;;;;;;;5100235;27;20047;-64
2022/05/18 03:03:18;;;;;;;9.57;6.70;;;;;;;;;;5098818;27;20040;-64
2022/05/18 03:05:44;;;;;;;11.20;7.50;;;;;;;;;;5098831;28;20652;-64
2022/05/18 03:08:10;;;;;;;11.63;7.88;;;;;;;;;;5096174;28;20096;-64
2022/05/18 03:10:36;;;;;;;10.00;7.13;;;;;;;;;;5101197;28;20362;-64
2022/05/18 03:13:03;;;;;;;9.45;6.10;;;;;;;;;;5095650;27;20036;-64
2022/05/18 03:15:29;;;;;;;10.70;7.28;;;;;;;;;;5095982;28;20039;-64
2022/05/18 03:17:55;;;;;;;13.20;7.97;;;;;;;;;;5094049;28;20507;-64
2022/05/18 03:25:51;;;;;;;13.55;8.32;;;;;;;;;;5088629;27;20504;-64
2022/05/18 03:28:17;;;;;;;14.40;6.68;;;;;;;;;;5088097;27;20036;-65
2022/05/18 03:30:43;;;;;;;11.43;7.13;;;;;;;;;;5090411;27;20040;-64
2022/05/18 03:33:09;;;;;;;12.13;7.95;;;;;;;;;;5088483;27;20119;-64
2022/05/18 03:35:35;;;;;;;11.68;7.32;;;;;;;;;;5086480;27;20082;-64
2022/05/18 03:38:05;;;;;;;8.95;6.85;;;;;;;;;;5093788;28;20129;-64
2022/05/18 03:40:35;;;;;;;12.73;7.55;;;;;;;;;;5090896;27;20454;-64
2022/05/18 03:43:01;;;;;;;11.32;7.60;;;;;;;;;;5087771;27;20066;-65
2022/05/18 03:45:28;;;;;;;11.52;7.30;;;;;;;;;;5090330;28;20071;-64
2022/05/18 03:47:54;;;;;;;10.65;8.23;;;;;;;;;;5088125;27;20063;-64
2022/05/18 03:50:20;;;;;;;11.18;7.13;;;;;;;;;;5091025;27;20271;-64
2022/05/18 03:52:47;;;;;;;13.95;7.45;;;;;;;;;;5090178;27;20048;-64
2022/05/18 03:55:13;;;;;;;16.73;8.73;;;;;;;;;;5086635;27;20040;-64
2022/05/18 03:57:39;;;;;;;9.90;7.30;;;;;;;;;;5093875;27;20473;-64
2022/05/18 04:00:08;;;;;;;8.80;6.80;;;;;;;;;;5093391;28;20084;-64
2022/05/18 04:02:34;;;;;;;11.68;7.93;;;;;;;;;;5087271;27;20063;-64
2022/05/18 04:05:00;;;;;;;10.95;7.38;;;;;;;;;;5098973;28;20106;-64
2022/05/18 04:07:26;;;;;;;13.57;8.32;;;;;;;;;;5096986;27;20130;-64
2022/05/18 04:09:52;;;;;;;10.80;8.38;;;;;;;;;;5098621;28;20031;-64
2022/05/18 04:12:19;;;;;;;14.23;7.72;;;;;;;;;;5097694;27;20034;-64
2022/05/18 04:14:46;;;;;;;9.48;6.85;;;;;;;;;;5083277;28;20043;-64
2022/05/18 04:17:13;;;;;;;11.60;7.88;;;;;;;;;;5093192;28;20047;-64
2022/05/18 04:19:40;;;;;;;14.63;8.10;;;;;;;;;;5086908;27;20619;-64
2022/05/18 04:22:06;;;;;;;11.35;7.90;;;;;;;;;;5083854;27;20036;-64
2022/05/18 04:24:32;;;;;;;15.70;7.30;;;;;;;;;;5085865;28;20092;-64
2022/05/18 04:26:58;;;;;;;13.20;7.53;;;;;;;;;;5088582;28;20075;-64
2022/05/18 04:29:25;;;;;;;12.05;7.07;;;;;;;;;;5087133;28;20448;-64
2022/05/18 04:31:51;;;;;;;11.77;8.15;;;;;;;;;;5098568;28;20028;-64
2022/05/18 04:34:17;;;;;;;10.52;7.55;;;;;;;;;;5094147;28;20158;-64
2022/05/18 04:36:43;;;;;;;10.93;7.43;;;;;;;;;;5085653;27;20113;-64
2022/05/18 04:39:10;;;;;;;9.68;7.15;;;;;;;;;;5085836;27;20039;-64
2022/05/18 04:41:36;;;;;;;11.52;8.07;;;;;;;;;;5085716;27;20035;-64
2022/05/18 04:44:03;;;;;;;10.70;8.07;;;;;;;;;;5093474;28;20035;-64
2022/05/18 04:46:29;;;;;;;11.15;7.88;;;;;;;;;;5099758;28;20044;-64
2022/05/18 04:48:55;;;;;;;13.65;8.05;;;;;;;;;;5080821;28;20040;-64
2022/05/18 04:51:21;;;;;;;10.73;8.27;;;;;;;;;;5096407;27;20031;-64
2022/05/18 04:53:48;;;;;;;11.95;8.73;;;;;;;;;;5087855;28;20118;-64
2022/05/18 04:56:14;;;;;;;10.20;9.13;;;;;;;;;;5087755;28;20040;-64
2022/05/18 04:58:40;;;;;;;20.27;9.60;;;;;;;;;;5091247;28;20045;-64
2022/05/18 05:01:08;;;;;;;14.57;9.25;;;;;;;;;;5095181;27;20062;-64
2022/05/18 05:03:35;;;;;;;13.65;9.02;;;;;;;;;;5096208;28;20151;-64
2022/05/18 05:06:02;;;;;;;11.93;8.02;;;;;;;;;;5096574;28;20050;-64
2022/05/18 05:08:28;;;;;;;13.52;9.82;;;;;;;;;;5094475;27;20043;-64
2022/05/18 05:10:54;;;;;;;13.23;9.48;;;;;;;;;;5092130;28;20341;-64
2022/05/18 05:13:20;;;;;;;11.43;8.57;;;;;;;;;;5086955;27;20413;-64
2022/05/18 05:15:46;;;;;;;15.32;9.50;;;;;;;;;;5089213;27;20079;-64
2022/05/18 05:18:13;;;;;;;11.23;8.88;;;;;;;;;;5094305;27;20516;-64
2022/05/18 05:20:39;;;;;;;12.77;8.23;;;;;;;;;;5085141;28;20540;-65
2022/05/18 05:23:05;;;;;;;17.15;9.77;;;;;;;;;;5085035;28;20207;-64
2022/05/18 05:25:31;;;;;;;14.50;8.80;;;;;;;;;;5088939;28;20097;-64
2022/05/18 05:27:57;;;;;;;15.18;9.23;;;;;;;;;;5086031;28;20159;-64
2022/05/18 05:30:24;;;;;;;21.65;10.40;;;;;;;;;;5085440;28;20042;-64
2022/05/18 05:32:50;;;;;;;11.25;8.57;;;;;;;;;;5088927;27;20416;-64
2022/05/18 05:35:16;;;;;;;13.45;9.23;;;;;;;;;;5085338;28;20028;-64
2022/05/18 05:37:42;;;;;;;13.70;9.98;;;;;;;;;;5089597;28;20051;-64
2022/05/18 05:40:08;;;;;;;14.90;10.57;;;;;;;;;;5088089;28;20040;-64
2022/05/18 05:42:34;;;;;;;17.05;11.05;;;;;;;;;;5085674;28;20095;-64
2022/05/18 05:45:01;;;;;;;12.25;9.68;;;;;;;;;;5093484;28;20044;-64
2022/05/18 05:47:27;;;;;;;18.35;10.70;;;;;;;;;;5092148;28;20040;-64
2022/05/18 05:49:53;;;;;;;17.33;10.23;;;;;;;;;;5089177;28;20443;-64
2022/05/18 05:52:19;;;;;;;17.55;10.98;;;;;;;;;;5084134;28;20534;-64
2022/05/18 05:54:45;;;;;;;15.80;11.02;;;;;;;;;;5084428;28;20569;-64
2022/05/18 05:57:11;;;;;;;14.20;11.07;;;;;;;;;;5085295;28;20549;-64
2022/05/18 05:59:38;;;;;;;13.43;10.10;;;;;;;;;;5093625;28;20042;-64
2022/05/18 06:02:08;;;;;;;14.60;11.15;;;;;;;;;;5067084;28;20040;-64
2022/05/18 06:04:35;;;;;;;16.60;11.43;;;;;;;;;;5091394;28;20121;-64
2022/05/18 06:07:01;;;;;;;15.93;11.85;;;;;;;;;;5099746;28;20031;-64
2022/05/18 06:09:27;;;;;;;14.25;10.60;;;;;;;;;;5098169;28;20035;-64
2022/05/18 06:11:53;;;;;;;16.20;11.93;;;;;;;;;;5087333;28;20043;-65
2022/05/18 06:14:20;;;;;;;16.20;11.73;;;;;;;;;;5084952;28;20040;-64
2022/05/18 06:16:47;;;;;;;16.60;11.15;;;;;;;;;;5096709;28;20040;-64
2022/05/18 06:19:17;;;;;;;17.40;11.38;;;;;;;;;;5089187;28;20663;-64
2022/05/18 06:21:43;;;;;;;15.23;11.98;;;;;;;;;;5083257;28;20040;-64
2022/05/18 06:24:10;;;;;;;16.05;11.93;;;;;;;;;;5084732;28;20055;-64
2022/05/18 06:26:36;;;;;;;14.70;11.13;;;;;;;;;;5085014;28;20055;-64
2022/05/18 06:29:03;;;;;;;17.45;10.90;;;;;;;;;;5086170;28;20046;-64
2022/05/18 06:31:30;;;;;;;12.68;11.38;;;;;;;;;;5085144;28;20515;-64
2022/05/18 06:33:56;;;;;;;18.92;12.57;;;;;;;;;;5086035;28;20404;-64
2022/05/18 06:36:22;;;;;;;16.05;12.93;;;;;;;;;;5083720;28;20093;-65
2022/05/18 06:38:48;;;;;;;15.80;11.73;;;;;;;;;;5087154;27;20559;-64
2022/05/18 06:41:23;;;;;;;16.38;12.70;;;;;;;;;;5092956;27;20040;-64
2022/05/18 06:43:51;;;;;;;16.52;11.98;;;;;;;;;;5089608;27;20044;-64
2022/05/18 06:46:17;;;;;;;20.35;13.57;;;;;;;;;;5088395;27;20248;-65
2022/05/18 06:48:44;;;;;;;17.08;12.63;;;;;;;;;;5096488;27;20139;-64
2022/05/18 06:51:10;;;;;;;25.35;14.57;;;;;;;;;;5094045;28;20036;-65
2022/05/18 06:53:36;;;;;;;17.52;13.30;;;;;;;;;;5087207;27;20051;-64
2022/05/18 06:56:02;;;;;;;20.38;13.65;;;;;;;;;;5095048;28;20472;-64
2022/05/18 06:58:29;;;;;;;17.85;12.75;;;;;;;;;;5088799;27;20476;-64
2022/05/18 07:00:56;;;;;;;19.67;13.93;;;;;;;;;;5087743;27;20082;-65
2022/05/18 07:03:22;;;;;;;16.98;12.63;;;;;;;;;;5088634;27;20051;-64
2022/05/18 07:05:48;;;;;;;26.17;13.18;;;;;;;;;;5086169;27;20467;-64
2022/05/18 07:08:15;;;;;;;18.55;12.77;;;;;;;;;;5087217;27;20497;-64
2022/05/18 07:10:41;;;;;;;20.52;13.10;;;;;;;;;;5087628;28;20579;-64
2022/05/18 07:13:07;;;;;;;15.50;12.65;;;;;;;;;;5090140;27;20054;-65
2022/05/18 07:15:33;;;;;;;17.95;12.95;;;;;;;;;;5087557;27;20066;-64
2022/05/18 07:18:00;;;;;;;17.52;12.10;;;;;;;;;;5092428;27;20096;-64
2022/05/18 07:20:27;;;;;;;18.98;12.00;;;;;;;;;;5087502;28;20047;-65
2022/05/18 07:22:53;;;;;;;13.75;12.10;;;;;;;;;;5088341;27;20055;-65
2022/05/18 07:25:20;;;;;;;20.42;11.82;;;;;;;;;;5088304;27;20131;-65
2022/05/18 07:27:46;;;;;;;14.88;10.93;;;;;;;;;;5087582;27;20076;-65
2022/05/18 07:30:13;;;;;;;15.15;10.00;;;;;;;;;;5087797;28;20833;-64
2022/05/18 07:32:39;;;;;;;18.85;11.32;;;;;;;;;;5090663;27;20596;-64
2022/05/18 07:35:07;;;;;;;17.70;11.07;;;;;;;;;;5087985;28;20044;-64
2022/05/18 07:37:33;;;;;;;18.30;11.45;;;;;;;;;;5096866;27;20098;-65
2022/05/18 07:39:59;;;;;;;16.15;12.00;;;;;;;;;;5085909;28;20044;-64
2022/05/18 07:42:25;;;;;;;19.33;12.73;;;;;;;;;;5099931;27;20506;-65
2022/05/18 07:44:51;;;;;;;17.73;10.65;;;;;;;;;;5087722;27;20043;-64
2022/05/18 07:47:20;;;;;;;16.23;9.55;;;;;;;;;;5086717;27;20044;-65
2022/05/18 07:49:46;;;;;;;18.35;11.15;;;;;;;;;;5093353;28;20044;-65
2022/05/18 07:52:12;;;;;;;14.00;10.13;;;;;;;;;;5087973;27;20032;-65
2022/05/18 07:54:40;;;;;;;14.02;11.10;;;;;;;;;;5087091;28;20048;-65
2022/05/18 07:57:07;;;;;;;17.00;12.23;;;;;;;;;;5087559;27;20481;-65
2022/05/18 07:59:33;;;;;;;19.92;11.32;;;;;;;;;;5069134;28;20182;-65
2022/05/18 08:01:59;;;;;;;14.10;11.20;;;;;;;;;;5086638;27;20044;-65
2022/05/18 08:04:26;;;;;;;20.42;11.43;;;;;;;;;;5088128;28;20043;-64
2022/05/18 08:06:52;;;;;;;18.73;11.90;;;;;;;;;;5085375;28;20402;-65
2022/05/18 08:09:22;;;;;;;22.02;12.98;;;;;;;;;;5085046;28;20051;-65
2022/05/18 08:17:19;;;;;;;23.60;13.07;;;;;;;;;;5096530;28;20044;-64
2022/05/18 08:19:46;;;;;;;18.52;12.77;;;;;;;;;;5090711;27;20040;-64
2022/05/18 08:22:12;;;;;;;19.15;12.65;;;;;;;;;;5084512;27;20044;-64
2022/05/18 08:24:38;;;;;;;26.60;15.27;;;;;;;;;;5090023;27;20047;-65
2022/05/18 08:27:12;;;;;;;29.73;15.98;;;;;;;;;;5086238;27;20036;-65
2022/05/18 08:29:38;;;;;;;20.75;14.07;;;;;;;;;;5089588;28;20070;-65
2022/05/18 08:32:04;;;;;;;17.83;13.82;;;;;;;;;;5088608;27;20504;-64
2022/05/18 08:34:31;;;;;;;18.55;14.20;;;;;;;;;;5097769;28;20044;-65
2022/05/18 08:36:58;;;;;;;24.60;15.63;;;;;;;;;;5088717;28;20378;-64
2022/05/18 08:39:24;;;;;;;18.10;13.50;;;;;;;;;;5085945;28;20372;-65
2022/05/18 08:41:51;;;;;;;19.65;14.52;;;;;;;;;;5085812;28;20500;-65
2022/05/18 08:44:23;;;;;;;23.42;14.15;;;;;;;;;;5100331;27;20044;-64
2022/05/18 08:46:55;;;;;;;20.83;13.57;;;;;;;;;;5088025;28;20519;-64
2022/05/18 08:49:40;;;;;;;21.45;14.80;;;;;;;;;;5089754;27;20040;-64
2022/05/18 08:52:07;;;;;;;16.83;14.30;;;;;;;;;;5098900;28;20074;-65
2022/05/18 08:54:52;;;;;;;21.42;15.45;;;;;;;;;;5086593;27;20466;-65
2022/05/18 08:57:26;;;;;;;26.88;15.48;;;;;;;;;;5085068;27;20115;-65
2022/05/18 08:59:54;;;;;;;22.50;16.42;;;;;;;;;;5087701;28;20031;-65
2022/05/18 09:02:23;;;;;;;18.40;14.30;;;;;;;;;;5085428;28;20066;-65
2022/05/18 09:05:05;;;;;;;22.67;16.17;;;;;;;;;;5090925;28;20044;-65
2022/05/18 09:07:37;;;;;;;17.98;14.50;;;;;;;;;;5083661;28;20036;-65
2022/05/18 09:10:13;;;;;;;20.30;15.40;;;;;;;;;;5084897;27;20254;-65
2022/05/18 09:12:41;;;;;;;19.15;14.68;;;;;;;;;;5090783;27;20525;-65
2022/05/18 09:15:09;;;;;;;21.75;14.27;;;;;;;;;;5092653;28;20034;-65
2022/05/18 09:17:55;;;;;;;19.27;13.57;;;;;;;;;;5085901;28;20036;-65
2022/05/18 09:20:23;;;;;;;20.05;13.95;;;;;;;;;;5088044;28;20040;-65
2022/05/18 09:22:52;;;;;;;18.75;11.82;;;;;;;;;;5098630;27;20040;-65
2022/05/18 09:25:19;;;;;;;17.45;11.98;;;;;;;;;;5097942;28;20118;-66
2022/05/18 09:27:54;;;;;;;19.77;13.98;;;;;;;;;;5092754;28;20123;-65
2022/05/18 09:30:48;;;;;;;16.10;12.23;;;;;;;;;;5092535;28;20447;-65
2022/05/18 09:33:21;;;;;;;19.35;13.93;;;;;;;;;;5099186;28;20040;-65
2022/05/18 09:35:50;;;;;;;17.60;12.10;;;;;;;;;;5093852;28;20607;-65
2022/05/18 09:38:42;;;;;;;15.75;12.93;;;;;;;;;;5086203;28;20048;-65
2022/05/18 09:41:11;;;;;;;16.02;13.90;;;;;;;;;;5083872;28;20125;-65
2022/05/18 09:43:37;;;;;;;20.20;16.67;;;;;;;;;;5095498;28;20271;-65
2022/05/18 09:46:04;;;;;;;18.15;14.45;;;;;;;;;;5097694;28;20043;-65
2022/05/18 09:48:30;;;;;;;18.75;13.80;;;;;;;;;;5084893;28;20047;-65
2022/05/18 09:50:56;;;;;;;18.17;12.93;;;;;;;;;;5093250;28;20101;-65
2022/05/18 09:53:23;;;;;;;22.13;14.23;;;;;;;;;;5093836;28;20106;-65
2022/05/18 09:55:50;;;;;;;15.73;12.20;;;;;;;;;;5097226;28;20459;-65
2022/05/18 09:58:36;;;;;;;16.67;12.70;;;;;;;;;;5095034;28;20621;-65
2022/05/18 10:07:31;;;;;;;19.98;12.45;;;;;;;;;;5080225;28;20071;-65
2022/05/18 10:10:01;;;;;;;17.92;12.32;;;;;;;;;;5101613;28;20043;-65
2022/05/18 10:12:46;;;;;;;15.52;11.55;;;;;;;;;;5086586;27;20066;-66
2022/05/18 10:15:36;;;;;;;18.80;12.00;;;;;;;;;;5103585;28;20109;-65
2022/05/18 10:18:11;;;;;;;14.73;11.63;;;;;;;;;;5090163;27;20056;-65
2022/05/18 10:20:40;;;;;;;13.27;10.50;;;;;;;;;;5086118;28;20040;-65
2022/05/18 10:23:22;;;;;;;16.55;11.57;;;;;;;;;;5086055;28;20044;-65
2022/05/18 10:25:50;;;;;;;18.98;13.82;;;;;;;;;;5091038;27;20044;-65
2022/05/18 10:28:21;;;;;;;17.35;14.43;;;;;;;;;;5089454;28;20079;-65
2022/05/18 10:31:13;;;;;;;19.10;14.68;;;;;;;;;;5098427;27;20044;-65
2022/05/18 10:33:41;;;;;;;15.73;11.98;;;;;;;;;;5087026;28;20055;-65
2022/05/18 10:36:10;;;;;;;19.50;13.13;;;;;;;;;;5088925;27;20079;-65
2022/05/18 10:38:36;;;;;;;18.08;11.35;;;;;;;;;;5087571;28;20460;-65
2022/05/18 10:41:05;;;;;;;16.83;11.93;;;;;;;;;;5087783;28;20043;-65
2022/05/18 10:43:39;;;;;;;16.45;12.50;;;;;;;;;;5090146;27;20597;-65
2022/05/18 10:46:11;;;;;;;15.68;10.43;;;;;;;;;;5088042;28;20127;-65
2022/05/18 10:48:37;;;;;;;18.55;13.25;;;;;;;;;;5096653;27;20044;-65
2022/05/18 10:51:14;;;;;;;19.20;11.30;;;;;;;;;;5092481;27;20108;-65
2022/05/18 10:53:41;;;;;;;15.55;11.35;;;;;;;;;;5087433;28;20047;-65
2022/05/18 10:56:10;;;;;;;15.52;11.07;;;;;;;;;;5105663;27;20166;-65
2022/05/18 10:58:36;;;;;;;12.88;10.40;;;;;;;;;;5101639;28;20071;-65
2022/05/18 11:01:14;;;;;;;21.05;13.10;;;;;;;;;;5102173;28;20148;-65
2022/05/18 11:03:40;;;;;;;16.80;12.20;;;;;;;;;;5098088;28;20044;-65
2022/05/18 11:06:09;;;;;;;18.50;12.57;;;;;;;;;;5095389;28;20088;-65
2022/05/18 11:08:35;;;;;;;14.98;11.27;;;;;;;;;;5095741;28;20039;-65
2022/05/18 11:11:23;;;;;;;16.50;11.38;;;;;;;;;;5096508;27;20047;-65
2022/05/18 11:14:07;;;;;;;20.92;12.07;;;;;;;;;;5077898;28;20051;-65
2022/05/18 11:16:43;;;;;;;12.77;9.65;;;;;;;;;;5092933;28;20109;-65
2022/05/18 11:19:12;;;;;;;12.90;10.13;;;;;;;;;;5088444;27;20044;-65
2022/05/18 11:21:38;;;;;;;20.42;10.35;;;;;;;;;;5097147;27;20147;-65
2022/05/18 11:24:07;;;;;;;13.52;11.05;;;;;;;;;;5086334;28;20502;-65
2022/05/18 11:26:39;;;;;;;19.73;12.68;;;;;;;;;;5091227;28;20058;-65
2022/05/18 11:29:25;;;;;;;16.95;12.57;;;;;;;;;;5088821;27;20054;-65
2022/05/18 11:31:57;;;;;;;15.32;11.70;;;;;;;;;;5096524;28;20036;-65
2022/05/18 11:34:43;;;;;;;15.32;11.23;;;;;;;;;;5091479;28;20052;-65
2022/05/18 11:37:28;;;;;;;14.65;10.23;;;;;;;;;;5084188;28;20036;-65
2022/05/18 11:39:54;;;;;;;17.83;9.90;;;;;;;;;;5089080;28;20039;-65
2022/05/18 11:42:27;;;;;;;18.23;10.20;;;;;;;;;;5087060;28;20778;-65
2022/05/18 11:45:14;;;;;;;15.38;9.93;;;;;;;;;;5094524;27;20390;-65
2022/05/18 11:47:46;;;;;;;19.85;10.57;;;;;;;;;;5099052;28;20039;-65
2022/05/18 11:50:36;;;;;;;13.88;11.57;;;;;;;;;;5097444;28;20035;-66
2022/05/18 11:53:02;;;;;;;16.77;11.98;;;;;;;;;;5091007;27;20078;-65
2022/05/18 11:55:38;;;;;;;18.38;11.07;;;;;;;;;;5094440;27;20048;-65
2022/05/18 11:58:21;;;;;;;17.25;11.13;;;;;;;;;;5090888;27;20401;-65
2022/05/18 12:01:03;;;;;;;17.70;13.00;;;;;;;;;;5088753;27;20040;-65
2022/05/18 12:03:35;;;;;;;19.10;12.13;;;;;;;;;;5092376;27;20088;-65
2022/05/18 12:06:20;;;;;;;21.02;13.60;;;;;;;;;;5087038;28;20043;-65
2022/05/18 12:09:05;;;;;;;15.43;12.68;;;;;;;;;;5088207;27;20166;-65
2022/05/18 12:11:40;;;;;;;17.52;11.55;;;;;;;;;;5086660;27;20043;-65
2022/05/18 12:14:14;;;;;;;20.10;13.65;;;;;;;;;;5095525;27;20073;-65
2022/05/18 12:16:40;;;;;;;18.75;12.45;;;;;;;;;;5085942;28;20472;-65
2022/05/18 12:19:22;;;;;;;20.15;13.18;;;;;;;;;;5093900;28;20055;-65
2022/05/18 12:21:53;;;;;;;21.70;14.83;;;;;;;;;;5087815;28;20048;-65
2022/05/18 12:24:20;;;;;;;24.30;16.43;;;;;;;;;;5086274;28;20043;-65
2022/05/18 12:26:46;;;;;;;20.50;15.02;;;;;;;;;;5085402;28;20040;-65
2022/05/18 12:29:17;;;;;;;22.50;14.80;;;;;;;;;;5090524;27;20050;-65
2022/05/18 12:31:43;;;;;;;25.70;15.32;;;;;;;;;;5085345;28;20591;-65
2022/05/18 12:34:12;;;;;;;22.48;13.90;;;;;;;;;;5084305;28;20044;-65
2022/05/18 12:36:46;;;;;;;20.83;13.80;;;;;;;;;;5085756;27;20549;-65
2022/05/18 12:39:19;;;;;;;21.30;13.63;;;;;;;;;;5088486;27;20047;-65
2022/05/18 12:41:46;;;;;;;17.88;14.23;;;;;;;;;;5085557;28;20165;-65
2022/05/18 12:44:14;;;;;;;18.83;14.07;;;;;;;;;;5084243;28;20125;-65
2022/05/18 12:46:45;;;;;;;19.98;14.30;;;;;;;;;;5085967;28;20564;-65
2022/05/18 12:49:17;;;;;;;20.07;14.47;;;;;;;;;;5092177;28;20043;-65
2022/05/18 12:51:52;;;;;;;21.02;14.23;;;;;;;;;;5083562;27;20040;-65
2022/05/18 12:54:30;;;;;;;25.92;14.20;;;;;;;;;;5089276;28;20101;-64
2022/05/18 12:57:06;;;;;;;27.80;16.85;;;;;;;;;;5088127;27;20360;-65
2022/05/18 13:00:07;;;;;;;26.65;15.98;;;;;;;;;;5088700;28;20440;-65
2022/05/18 13:02:33;;;;;;;26.05;14.60;;;;;;;;;;5080503;28;20047;-65
2022/05/18 13:05:00;;;;;;;22.95;14.52;;;;;;;;;;5091899;28;20540;-65
2022/05/18 13:07:30;;;;;;;20.48;14.95;;;;;;;;;;5083869;28;20105;-65
2022/05/18 13:10:10;;;;;;;19.98;14.80;;;;;;;;;;5084687;27;20044;-65
2022/05/18 13:12:39;;;;;;;26.45;14.30;;;;;;;;;;5095308;28;20641;-65
2022/05/18 13:15:21;;;;;;;23.55;15.95;;;;;;;;;;5087242;27;20142;-65
2022/05/18 13:18:00;;;;;;;21.35;14.75;;;;;;;;;;5095641;28;20042;-64
2022/05/18 13:20:29;;;;;;;22.55;15.07;;;;;;;;;;5083635;28;20089;-65
2022/05/18 13:23:08;;;;;;;20.63;14.60;;;;;;;;;;5083302;28;20048;-65
2022/05/18 13:25:35;;;;;;;19.08;14.25;;;;;;;;;;5083069;28;20056;-65
2022/05/18 13:28:03;;;;;;;19.23;14.30;;;;;;;;;;5091201;28;20058;-65
2022/05/18 13:30:29;;;;;;;20.15;14.07;;;;;;;;;;5088460;28;20167;-65
2022/05/18 13:32:56;;;;;;;17.45;12.90;;;;;;;;;;5087112;28;20035;-65
2022/05/18 13:35:26;;;;;;;19.77;13.65;;;;;;;;;;5085926;27;20051;-65
2022/05/18 13:37:53;;;;;;;24.50;15.77;;;;;;;;;;5081730;28;20089;-65
2022/05/18 13:40:21;;;;;;;24.10;14.27;;;;;;;;;;5085357;28;20389;-65
2022/05/18 13:42:48;;;;;;;17.92;13.55;;;;;;;;;;5088941;27;20688;-65
2022/05/18 13:45:15;;;;;;;15.73;12.35;;;;;;;;;;5085506;28;20093;-65
2022/05/18 13:47:43;;;;;;;23.67;14.77;;;;;;;;;;5082862;28;20135;-65
2022/05/18 13:50:19;;;;;;;22.02;12.93;;;;;;;;;;5083612;28;20319;-65
2022/05/18 13:52:45;;;;;;;21.10;12.70;;;;;;;;;;5080637;28;20040;-65
2022/05/18 13:55:14;;;;;;;17.20;12.45;;;;;;;;;;5083268;28;20134;-65
2022/05/18 13:57:40;;;;;;;23.50;14.00;;;;;;;;;;5084974;28;20054;-65
2022/05/18 14:00:18;;;;;;;22.33;13.32;;;;;;;;;;5088391;28;20114;-65
2022/05/18 14:02:45;;;;;;;23.88;12.55;;;;;;;;;;5083438;28;20522;-65
2022/05/18 14:05:13;;;;;;;17.00;12.07;;;;;;;;;;5095096;28;20074;-64
2022/05/18 14:07:41;;;;;;;16.98;11.85;;;;;;;;;;5081451;28;20119;-64
2022/05/18 14:10:09;;;;;;;20.00;12.32;;;;;;;;;;5099168;28;20111;-65
2022/05/18 14:12:35;;;;;;;18.02;12.15;;;;;;;;;;5083512;28;20505;-64
2022/05/18 14:15:03;;;;;;;22.38;12.45;;;;;;;;;;5082847;28;20044;-65
2022/05/18 14:17:30;;;;;;;21.05;12.57;;;;;;;;;;5089567;28;20036;-65
2022/05/18 14:20:00;;;;;;;15.10;11.27;;;;;;;;;;5083988;28;20097;-65
2022/05/18 14:22:29;;;;;;;19.58;11.50;;;;;;;;;;5081714;28;20040;-65
2022/05/18 14:25:06;;;;;;;21.77;12.43;;;;;;;;;;5085858;28;20040;-64
2022/05/18 14:27:43;;;;;;;16.38;10.13;;;;;;;;;;5088460;28;20052;-64
2022/05/18 14:30:17;;;;;;;18.63;11.40;;;;;;;;;;5085263;28;22077;-64
2022/05/18 14:32:46;;;;;;;21.27;12.50;;;;;;;;;;5093846;28;20086;-65
2022/05/18 14:35:14;;;;;;;19.50;11.82;;;;;;;;;;5089473;28;20032;-65
2022/05/18 14:37:44;;;;;;;19.35;12.35;;;;;;;;;;5083079;28;20143;-65
2022/05/18 14:40:11;;;;;;;17.42;11.32;;;;;;;;;;5088461;28;20111;-65
2022/05/18 14:42:46;;;;;;;16.38;12.45;;;;;;;;;;5084864;28;20039;-64
2022/05/18 14:45:18;;;;;;;18.92;12.38;;;;;;;;;;5087926;28;20040;-65
2022/05/18 14:47:46;;;;;;;17.42;9.75;;;;;;;;;;5096964;28;20047;-65
2022/05/18 14:50:18;;;;;;;18.92;11.05;;;;;;;;;;5093405;28;20032;-64
2022/05/18 14:52:52;;;;;;;18.27;9.45;;;;;;;;;;5090245;28;20030;-64
2022/05/18 14:55:27;;;;;;;16.55;10.52;;;;;;;;;;5085362;28;20529;-65